Time;durP1;ratioP1;P1;durP2;ratioP2;P2;SDS_P1;SDS_P2;PMS_P1;PMS_P2;Temp;Humidity;BMP_temperature;BMP_pressure;BME280_temperature;BME280_humidity;BME280_pressure;Samples;Min_cycle;Max_cycle;Signal;HPM_P1;HPM_P2
2022/02/01 00:02:05;;;;;;;8.40;3.75;;;0.30;84.50;;;;;;4925615;29;20037;-81
2022/02/01 00:04:49;;;;;;;7.75;3.20;;;0.40;84.50;;;;;;4921084;29;20036;-80
2022/02/01 00:07:33;;;;;;;9.27;3.60;;;0.30;84.50;;;;;;4903772;29;20114;-81
2022/02/01 00:12:50;;;;;;;12.00;3.63;;;0.30;84.40;;;;;;4920739;29;20094;-81
2022/02/01 00:37:05;;;;;;;10.80;4.00;;;0.40;83.30;;;;;;4921016;29;20032;-80
2022/02/01 00:39:42;;;;;;;10.60;3.27;;;0.40;83.40;;;;;;4921142;29;20063;-82
2022/02/01 00:42:08;;;;;;;8.02;3.70;;;0.30;83.40;;;;;;4920377;29;20024;-82
2022/02/01 00:44:34;;;;;;;8.98;3.40;;;0.30;83.60;;;;;;4919910;29;20083;-83
2022/02/01 00:46:59;;;;;;;7.78;3.70;;;0.30;83.70;;;;;;4903495;29;20439;-82
2022/02/01 00:49:27;;;;;;;7.18;3.55;;;0.30;83.90;;;;;;4902782;29;20036;-82
2022/02/01 00:51:55;;;;;;;7.80;3.45;;;0.30;84.00;;;;;;4901864;29;20070;-81
2022/02/01 00:54:20;;;;;;;7.68;3.42;;;0.30;84.10;;;;;;4902335;29;20088;-82
2022/02/01 00:56:47;;;;;;;7.78;3.63;;;0.30;84.20;;;;;;4902146;29;20036;-82
2022/02/01 00:59:13;;;;;;;8.27;3.33;;;0.30;84.20;;;;;;4920229;29;20028;-81
2022/02/01 01:01:39;;;;;;;10.00;3.55;;;0.30;84.10;;;;;;4919294;29;20477;-82
2022/02/01 01:04:05;;;;;;;8.50;3.50;;;0.30;84.00;;;;;;4903409;29;20032;-80
2022/02/01 01:06:30;;;;;;;9.23;3.67;;;0.30;84.00;;;;;;4920983;29;20032;-81
2022/02/01 01:08:56;;;;;;;7.53;3.22;;;0.20;84.10;;;;;;4906767;29;20031;-81
2022/02/01 01:11:23;;;;;;;10.75;3.40;;;0.20;84.20;;;;;;4914457;29;20032;-82
2022/02/01 01:43:30;;;;;;;9.75;3.72;;;0.10;84.40;;;;;;4920117;29;20106;-81
2022/02/01 01:44:25;;;;;;;9.98;3.50;;;0.10;84.50;;;;;;4938008;29;20058;-81
2022/02/01 01:55:09;;;;;;;8.65;3.97;;;0.00;85.10;;;;;;4939008;29;20198;-81
2022/02/01 01:57:35;;;;;;;9.10;3.53;;;0.00;85.00;;;;;;4922013;29;20029;-81
2022/02/01 02:00:00;;;;;;;9.32;4.22;;;0.00;85.10;;;;;;4922011;29;20028;-81
2022/02/01 02:02:26;;;;;;;9.65;3.90;;;0.00;85.00;;;;;;4923655;29;20043;-81
2022/02/01 02:04:52;;;;;;;13.07;4.35;;;0.00;85.10;;;;;;4909085;29;20039;-81
2022/02/01 02:07:18;;;;;;;8.02;3.70;;;-0.10;85.20;;;;;;4924166;29;20031;-82
2022/02/01 02:09:44;;;;;;;9.55;3.80;;;-0.10;85.30;;;;;;4940954;29;20030;-81
2022/02/01 02:12:17;;;;;;;9.05;3.67;;;-0.10;85.60;;;;;;4924623;29;20031;-82
2022/02/01 02:14:50;;;;;;;7.93;3.40;;;-0.10;85.70;;;;;;4925270;29;20102;-81
2022/02/01 02:17:16;;;;;;;9.68;3.40;;;-0.10;85.80;;;;;;4923605;29;20035;-81
2022/02/01 02:19:42;;;;;;;9.18;3.33;;;-0.20;85.80;;;;;;4904906;29;20036;-81
2022/02/01 02:22:09;;;;;;;8.55;3.05;;;-0.20;85.90;;;;;;4908184;29;20066;-82
2022/02/01 02:24:41;;;;;;;9.30;3.55;;;-0.30;86.00;;;;;;4940509;29;20050;-82
2022/02/01 02:27:07;;;;;;;10.60;3.63;;;-0.30;86.30;;;;;;4925414;29;20031;-81
2022/02/01 02:29:34;;;;;;;8.07;3.60;;;-0.40;86.30;;;;;;4925038;29;20034;-81
2022/02/01 02:32:02;;;;;;;5.85;3.05;;;-0.40;86.40;;;;;;4923954;29;20064;-81
2022/02/01 02:34:29;;;;;;;6.90;3.35;;;-0.50;86.60;;;;;;4941839;29;20028;-82
2022/02/01 02:37:01;;;;;;;7.78;3.30;;;-0.50;86.70;;;;;;4925657;29;20031;-82
2022/02/01 02:42:15;;;;;;;8.48;3.40;;;-0.60;87.20;;;;;;4942891;29;20036;-80
2022/02/01 02:47:28;;;;;;;10.90;3.88;;;-0.70;87.50;;;;;;4942138;29;20379;-83
2022/02/01 02:49:55;;;;;;;12.13;4.00;;;-0.80;87.70;;;;;;4922994;29;20032;-81
2022/02/01 02:52:22;;;;;;;8.77;3.53;;;-0.80;88.40;;;;;;4923007;29;20083;-81
2022/02/01 02:54:48;;;;;;;8.18;3.70;;;-0.80;88.80;;;;;;4922578;29;20024;-80
2022/02/01 02:57:15;;;;;;;7.32;3.60;;;-0.90;88.80;;;;;;4921270;29;20040;-81
2022/02/01 02:59:41;;;;;;;10.60;3.60;;;-1.00;89.00;;;;;;4904128;29;20028;-82
2022/02/01 03:02:08;;;;;;;11.40;4.32;;;-1.00;89.30;;;;;;4903872;29;20028;-82
2022/02/01 03:04:35;;;;;;;9.40;3.58;;;-1.00;89.70;;;;;;4921425;29;20459;-82
2022/02/01 03:07:03;;;;;;;7.85;4.13;;;-1.10;89.90;;;;;;4904682;29;20036;-82
2022/02/01 03:09:30;;;;;;;10.15;3.88;;;-1.20;90.00;;;;;;4904374;29;20047;-82
2022/02/01 03:11:59;;;;;;;10.65;4.28;;;-1.20;90.10;;;;;;4905563;29;20043;-82
2022/02/01 03:19:52;;;;;;;11.57;4.97;;;-1.40;90.70;;;;;;4922246;29;20111;-82
2022/02/01 03:22:25;;;;;;;11.00;5.05;;;-1.40;91.20;;;;;;4921961;29;20060;-79
2022/02/01 03:24:52;;;;;;;10.85;4.28;;;-1.40;91.10;;;;;;4904933;29;20028;-80
2022/02/01 03:27:18;;;;;;;7.53;4.45;;;-1.50;91.20;;;;;;4922413;29;20443;-81
2022/02/01 03:29:44;;;;;;;14.05;5.40;;;-1.50;91.30;;;;;;4904586;29;20036;-81
2022/02/01 03:32:10;;;;;;;12.68;5.50;;;-1.60;91.60;;;;;;4904579;29;20088;-81
2022/02/01 03:34:36;;;;;;;18.15;7.57;;;-1.70;91.60;;;;;;4904091;29;20055;-82
2022/02/01 03:37:03;;;;;;;26.02;10.23;;;-1.70;91.70;;;;;;4904024;29;20462;-81
2022/02/01 03:39:29;;;;;;;34.28;11.82;;;-1.70;92.10;;;;;;4904315;29;20025;-82
2022/02/01 03:41:56;;;;;;;25.45;10.60;;;-1.70;92.40;;;;;;4907132;29;20394;-81
2022/02/01 03:44:22;;;;;;;24.33;9.90;;;-1.70;92.50;;;;;;4922835;29;20084;-79
2022/02/01 03:47:03;;;;;;;20.15;8.63;;;-1.70;92.60;;;;;;4887926;29;20066;-80
2022/02/01 03:49:34;;;;;;;22.23;6.95;;;-1.80;92.50;;;;;;4903572;29;20111;-79
2022/02/01 03:52:01;;;;;;;14.07;5.57;;;-1.80;92.80;;;;;;4903139;29;20032;-79
2022/02/01 03:54:30;;;;;;;17.13;5.55;;;-1.80;92.80;;;;;;4919191;29;20067;-82
2022/02/01 03:56:57;;;;;;;11.50;4.70;;;-1.80;93.00;;;;;;4924640;29;20438;-81
2022/02/01 03:59:23;;;;;;;8.65;4.22;;;-1.80;93.10;;;;;;4923985;29;20036;-82
2022/02/01 04:01:51;;;;;;;7.15;3.85;;;-1.80;93.00;;;;;;4926356;29;20047;-83
2022/02/01 04:04:17;;;;;;;12.93;4.20;;;-1.80;93.10;;;;;;4908934;29;20043;-82
2022/02/01 04:06:43;;;;;;;9.45;4.38;;;-1.80;93.10;;;;;;4906701;29;20031;-83
2022/02/01 04:09:09;;;;;;;10.27;3.88;;;-1.80;93.20;;;;;;4917979;29;20035;-80
2022/02/01 04:11:34;;;;;;;8.95;3.85;;;-1.80;93.30;;;;;;4902661;29;20040;-80
2022/02/01 04:14:01;;;;;;;11.93;4.45;;;-1.80;93.30;;;;;;4928006;29;20032;-81
2022/02/01 04:16:27;;;;;;;11.48;4.35;;;-1.80;93.30;;;;;;4921681;29;20032;-81
2022/02/01 04:18:53;;;;;;;8.63;4.03;;;-1.80;93.10;;;;;;4939940;29;20373;-81
2022/02/01 04:21:18;;;;;;;9.80;3.85;;;-1.70;93.10;;;;;;4921759;29;20032;-81
2022/02/01 04:23:44;;;;;;;7.45;3.72;;;-1.80;93.10;;;;;;4915970;29;20072;-82
2022/02/01 04:26:10;;;;;;;12.18;4.40;;;-1.80;93.10;;;;;;4902618;29;20032;-82
2022/02/01 04:28:35;;;;;;;9.90;4.03;;;-1.80;93.10;;;;;;4902874;29;20119;-81
2022/02/01 04:31:01;;;;;;;8.73;3.83;;;-1.90;93.20;;;;;;4902457;29;20028;-81
2022/02/01 04:33:28;;;;;;;12.75;4.78;;;-1.80;93.30;;;;;;4918061;29;20032;-81
2022/02/01 04:35:57;;;;;;;11.55;4.97;;;-1.80;93.50;;;;;;4922293;29;20027;-83
2022/02/01 04:38:24;;;;;;;14.10;5.70;;;-1.90;93.40;;;;;;4922664;29;20042;-80
2022/02/01 04:40:53;;;;;;;12.55;5.97;;;-1.90;93.50;;;;;;4921905;29;20497;-81
2022/02/01 04:43:20;;;;;;;12.60;5.78;;;-1.90;93.50;;;;;;4938698;29;20458;-80
2022/02/01 04:45:46;;;;;;;14.70;6.35;;;-1.90;93.30;;;;;;4939207;29;20078;-80
2022/02/01 04:48:13;;;;;;;12.43;6.43;;;-1.90;93.40;;;;;;4921961;29;20032;-82
2022/02/01 04:50:40;;;;;;;15.77;6.65;;;-1.90;93.70;;;;;;4921906;29;20035;-82
2022/02/01 04:53:06;;;;;;;12.32;6.50;;;-1.90;93.70;;;;;;4905992;29;20040;-81
2022/02/01 04:55:54;;;;;;;15.75;7.30;;;-2.00;94.00;;;;;;4920777;29;20042;-82
2022/02/01 04:58:21;;;;;;;18.70;7.85;;;-1.90;94.50;;;;;;4921917;29;20067;-80
2022/02/01 05:00:47;;;;;;;13.70;7.90;;;-1.90;94.00;;;;;;4921429;29;20114;-84
2022/02/01 05:03:15;;;;;;;17.10;7.60;;;-1.90;94.00;;;;;;4921610;29;20062;-84
2022/02/01 05:05:41;;;;;;;16.80;8.65;;;-1.90;94.00;;;;;;4921229;29;20114;-83
2022/02/01 05:08:09;;;;;;;19.30;8.30;;;-2.00;94.30;;;;;;4920670;29;20029;-84
2022/02/01 05:10:37;;;;;;;17.85;8.38;;;-2.00;94.30;;;;;;4920965;29;20430;-84
2022/02/01 05:15:51;;;;;;;22.23;9.35;;;-2.00;94.70;;;;;;4927497;29;20036;-85
2022/02/01 05:18:22;;;;;;;18.20;7.50;;;-2.00;94.80;;;;;;4938686;29;20035;-84
2022/02/01 05:21:11;;;;;;;18.98;7.07;;;-2.00;95.10;;;;;;4937111;29;20023;-81
2022/02/01 05:23:37;;;;;;;21.13;7.88;;;-2.00;95.10;;;;;;4937674;29;20462;-85
2022/02/01 05:26:04;;;;;;;19.83;8.13;;;-2.00;95.40;;;;;;4911448;29;20040;-81
2022/02/01 05:28:31;;;;;;;15.55;7.15;;;-1.90;95.50;;;;;;4919736;29;20467;-83
2022/02/01 05:31:02;;;;;;;17.73;6.65;;;-1.90;95.50;;;;;;4903010;29;20479;-86
2022/02/01 05:33:33;;;;;;;16.60;6.65;;;-1.80;95.50;;;;;;4902708;29;20028;-84
2022/02/01 05:36:01;;;;;;;16.27;6.72;;;-1.80;95.50;;;;;;4920701;29;20028;-85
2022/02/01 05:38:27;;;;;;;14.55;6.03;;;-1.70;95.40;;;;;;4908236;29;20530;-83
2022/02/01 05:40:52;;;;;;;16.38;5.65;;;-1.70;95.20;;;;;;4900217;29;20083;-82
2022/02/01 05:43:25;;;;;;;11.77;5.85;;;-1.60;95.10;;;;;;4909476;29;20051;-82
2022/02/01 05:45:53;;;;;;;14.70;5.15;;;-1.60;95.00;;;;;;4904017;29;20024;-83
2022/02/01 05:48:21;;;;;;;17.80;6.30;;;-1.60;95.10;;;;;;4905454;29;20051;-84
2022/02/01 05:50:54;;;;;;;15.18;5.78;;;-1.60;94.90;;;;;;4910565;29;20077;-83
2022/02/01 05:53:20;;;;;;;19.92;6.05;;;-1.50;94.90;;;;;;4901990;29;20095;-83
2022/02/01 05:55:53;;;;;;;16.00;5.70;;;-1.60;94.90;;;;;;4926373;29;20043;-85
2022/02/01 05:58:22;;;;;;;13.85;5.50;;;-1.50;95.00;;;;;;4931485;29;20036;-84
2022/02/01 06:00:48;;;;;;;12.88;5.70;;;-1.50;95.10;;;;;;4904915;29;20028;-84
2022/02/01 06:03:15;;;;;;;15.13;6.10;;;-1.50;95.20;;;;;;4921304;29;20040;-82
2022/02/01 06:05:42;;;;;;;12.43;5.75;;;-1.50;95.20;;;;;;4933911;29;20036;-82
2022/02/01 06:08:10;;;;;;;15.13;6.40;;;-1.40;95.30;;;;;;4901525;29;20035;-82
2022/02/01 06:10:36;;;;;;;18.77;6.63;;;-1.40;95.30;;;;;;4909567;29;20067;-82
2022/02/01 06:13:03;;;;;;;19.35;7.47;;;-1.40;95.30;;;;;;4929746;29;20032;-81
2022/02/01 06:15:30;;;;;;;20.35;7.63;;;-1.30;95.40;;;;;;4921297;29;20028;-81
2022/02/01 06:17:58;;;;;;;20.75;7.95;;;-1.30;95.20;;;;;;4904582;29;20039;-84
2022/02/01 06:20:24;;;;;;;17.88;7.20;;;-1.20;95.20;;;;;;4921059;29;20132;-81
2022/02/01 06:22:50;;;;;;;58.00;24.95;;;-1.20;95.10;;;;;;4904285;29;20061;-80
2022/02/01 06:25:20;;;;;;;34.13;13.73;;;-1.20;95.30;;;;;;4903638;29;20033;-80
2022/02/01 06:27:49;;;;;;;23.55;9.05;;;-1.10;94.90;;;;;;4904329;29;20122;-81
2022/02/01 06:30:15;;;;;;;19.75;6.88;;;-1.00;94.80;;;;;;4902996;29;20033;-80
2022/02/01 06:32:43;;;;;;;15.75;7.38;;;-1.00;94.70;;;;;;4903355;29;20040;-77
2022/02/01 06:35:10;;;;;;;17.92;7.60;;;-1.00;94.50;;;;;;4922627;29;20048;-78
2022/02/01 06:37:37;;;;;;;18.73;7.68;;;-0.90;94.30;;;;;;4888570;29;20040;-78
2022/02/01 06:40:07;;;;;;;22.73;9.23;;;-0.90;94.10;;;;;;4888162;29;20424;-78
2022/02/01 06:42:34;;;;;;;22.33;9.40;;;-0.90;93.70;;;;;;4903228;29;20399;-77
2022/02/01 06:45:01;;;;;;;24.02;10.98;;;-0.90;93.80;;;;;;4920828;29;20032;-79
2022/02/01 06:47:26;;;;;;;20.17;9.52;;;-0.80;93.90;;;;;;4903824;29;20032;-79
2022/02/01 06:49:52;;;;;;;20.30;8.98;;;-0.80;94.00;;;;;;4903958;29;20061;-83
2022/02/01 06:52:18;;;;;;;17.48;7.88;;;-0.80;93.70;;;;;;4903166;29;20119;-83
2022/02/01 06:54:44;;;;;;;17.42;7.97;;;-0.80;94.00;;;;;;4920247;29;20083;-84
2022/02/01 06:57:09;;;;;;;14.80;7.20;;;-0.80;94.20;;;;;;4904002;29;20051;-82
2022/02/01 06:59:35;;;;;;;19.45;7.32;;;-0.80;94.20;;;;;;4904852;29;20092;-83
2022/02/01 07:02:01;;;;;;;12.02;5.78;;;-0.80;94.10;;;;;;4904887;29;20475;-82
2022/02/01 07:04:26;;;;;;;12.52;5.20;;;-0.70;94.40;;;;;;4904653;29;20038;-84
2022/02/01 07:06:52;;;;;;;13.13;5.32;;;-0.60;94.40;;;;;;4922182;29;20032;-85
2022/02/01 07:09:21;;;;;;;9.63;4.85;;;-0.60;94.00;;;;;;4923279;29;20036;-85
2022/02/01 07:11:46;;;;;;;10.35;4.90;;;-0.50;93.70;;;;;;4905130;29;20141;-87
2022/02/01 07:14:12;;;;;;;19.73;7.78;;;-0.50;93.90;;;;;;4905171;29;20486;-87
2022/02/01 07:16:38;;;;;;;16.35;7.20;;;-0.40;93.80;;;;;;4922452;29;20020;-86
2022/02/01 07:19:03;;;;;;;12.90;6.18;;;-0.30;93.70;;;;;;4931138;29;20147;-84
2022/02/01 07:21:29;;;;;;;16.27;6.25;;;-0.30;93.60;;;;;;4915727;29;20025;-85
2022/02/01 07:23:56;;;;;;;12.93;5.65;;;-0.20;93.50;;;;;;4920726;29;20506;-85
2022/02/01 07:26:22;;;;;;;18.38;6.13;;;0.00;93.40;;;;;;4924596;29;20035;-89
2022/02/01 07:28:48;;;;;;;14.10;5.65;;;0.10;92.60;;;;;;4924202;29;20055;-84
2022/02/01 07:31:14;;;;;;;13.82;6.32;;;0.10;92.40;;;;;;4927490;29;20108;-84
2022/02/01 07:33:39;;;;;;;12.55;5.97;;;0.20;92.10;;;;;;4912912;29;20032;-88
2022/02/01 07:36:06;;;;;;;15.05;6.20;;;0.20;91.80;;;;;;4917059;29;20046;-81
2022/02/01 07:38:32;;;;;;;12.02;5.70;;;0.30;91.60;;;;;;4916709;29;20047;-81
2022/02/01 07:40:58;;;;;;;13.77;5.30;;;0.40;91.50;;;;;;4911771;29;20028;-82
2022/02/01 07:43:31;;;;;;;13.02;6.00;;;0.50;91.40;;;;;;4905812;29;20134;-81
2022/02/01 07:46:05;;;;;;;13.82;5.80;;;0.60;90.40;;;;;;4907785;29;20024;-81
2022/02/01 07:48:34;;;;;;;11.57;5.15;;;0.70;90.00;;;;;;4905977;29;20032;-81
2022/02/01 07:51:00;;;;;;;14.20;6.55;;;0.80;89.20;;;;;;4921456;29;20035;-81
2022/02/01 07:53:26;;;;;;;14.32;6.28;;;0.80;87.60;;;;;;4903221;29;20067;-83
2022/02/01 07:55:52;;;;;;;14.20;6.47;;;0.90;87.70;;;;;;4921623;29;20064;-83
2022/02/01 07:58:18;;;;;;;16.02;6.38;;;1.00;87.20;;;;;;4904341;29;20033;-83
2022/02/01 08:00:44;;;;;;;15.00;6.20;;;1.00;86.80;;;;;;4919194;29;20028;-83
2022/02/01 08:03:12;;;;;;;12.43;5.70;;;1.00;86.40;;;;;;4901615;29;20032;-84
2022/02/01 08:05:38;;;;;;;16.88;5.97;;;1.10;87.00;;;;;;4901301;29;20032;-84
2022/02/01 08:08:04;;;;;;;12.45;5.47;;;1.10;86.60;;;;;;4917671;29;20024;-84
2022/02/01 08:10:39;;;;;;;10.60;4.80;;;1.20;86.60;;;;;;4901817;29;20056;-84
2022/02/01 08:20:52;;;;;;;10.90;5.28;;;1.60;82.20;;;;;;4921714;29;20079;-82
2022/02/01 08:23:17;;;;;;;13.45;5.60;;;1.70;81.70;;;;;;4889729;29;20040;-82
2022/02/01 08:25:43;;;;;;;13.50;6.25;;;1.80;82.10;;;;;;4903551;29;20032;-82
2022/02/01 08:28:10;;;;;;;12.70;5.65;;;1.90;81.30;;;;;;4922117;29;20016;-82
2022/02/01 08:30:36;;;;;;;12.90;5.43;;;2.00;80.00;;;;;;4921485;29;20035;-83
2022/02/01 08:33:04;;;;;;;15.75;6.03;;;2.20;79.60;;;;;;4920973;29;20031;-82
2022/02/01 08:35:29;;;;;;;12.52;5.65;;;2.30;78.70;;;;;;4905454;29;20028;-81
2022/02/01 08:37:55;;;;;;;10.57;5.40;;;2.30;78.80;;;;;;4921411;29;20439;-81
2022/02/01 08:40:23;;;;;;;14.65;5.78;;;2.40;79.20;;;;;;4920861;29;20409;-82
2022/02/01 08:42:49;;;;;;;14.23;5.78;;;2.50;78.20;;;;;;4903590;29;20411;-82
2022/02/01 08:45:23;;;;;;;15.82;5.90;;;2.60;77.90;;;;;;4904141;29;20032;-82
2022/02/01 08:47:55;;;;;;;11.68;5.55;;;2.70;79.90;;;;;;4920116;29;20088;-82
2022/02/01 08:50:26;;;;;;;14.07;4.72;;;3.20;80.00;;;;;;4903632;29;20043;-83
2022/02/01 08:52:53;;;;;;;14.18;5.63;;;3.70;80.50;;;;;;4905037;29;20039;-82
2022/02/01 08:55:34;;;;;;;10.77;4.60;;;4.50;79.00;;;;;;4902926;29;20119;-83
2022/02/01 08:58:01;;;;;;;;;;;5.10;76.10;;;;;;4904323;29;20051;-82
2022/02/01 09:00:28;;;;;;;14.40;4.78;;;5.70;73.00;;;;;;4920576;29;19911;-82
2022/02/01 09:02:56;;;;;;;13.73;4.80;;;6.20;69.70;;;;;;4904557;29;20040;-82
2022/02/01 09:05:22;;;;;;;11.40;4.22;;;6.60;68.60;;;;;;4903170;29;20470;-82
2022/02/01 09:07:48;;;;;;;10.63;4.03;;;7.00;67.70;;;;;;4919143;29;20036;-82
2022/02/01 09:10:14;;;;;;;9.90;4.45;;;7.30;65.30;;;;;;4919317;29;20508;-82
2022/02/01 09:12:40;;;;;;;7.55;4.05;;;7.60;63.40;;;;;;4901887;29;20036;-83
2022/02/01 09:15:06;;;;;;;10.63;4.10;;;7.80;62.00;;;;;;4901990;29;20035;-82
2022/02/01 09:17:31;;;;;;;9.15;4.00;;;8.10;61.50;;;;;;4902878;29;20039;-83
2022/02/01 09:19:58;;;;;;;10.48;4.15;;;8.20;61.90;;;;;;4903195;29;20522;-83
2022/02/01 09:22:25;;;;;;;10.35;4.35;;;8.50;61.40;;;;;;4919691;29;20032;-83
2022/02/01 09:24:51;;;;;;;9.52;4.13;;;8.80;58.40;;;;;;4903854;29;20172;-83
2022/02/01 09:27:17;;;;;;;9.88;4.60;;;8.80;58.60;;;;;;4904277;29;20028;-81
2022/02/01 09:29:42;;;;;;;8.90;4.18;;;8.90;56.10;;;;;;4903755;29;20038;-81
2022/02/01 09:32:08;;;;;;;8.38;4.00;;;9.00;55.80;;;;;;4920029;29;20028;-82
2022/02/01 09:34:34;;;;;;;8.70;4.38;;;8.90;55.30;;;;;;4920838;29;20024;-84
2022/02/01 09:37:03;;;;;;;9.13;3.97;;;9.00;55.50;;;;;;4901958;29;20099;-81
2022/02/01 09:39:29;;;;;;;10.73;4.20;;;9.20;56.80;;;;;;4902398;29;20047;-82
2022/02/01 09:41:55;;;;;;;9.50;4.25;;;9.50;55.40;;;;;;4920154;29;20035;-81
2022/02/01 09:44:22;;;;;;;10.20;4.40;;;9.80;55.40;;;;;;4902969;29;20059;-81
2022/02/01 09:46:50;;;;;;;10.55;4.38;;;10.00;53.90;;;;;;4903431;29;20029;-82
2022/02/01 09:49:19;;;;;;;7.15;3.80;;;10.20;53.80;;;;;;4902834;29;20087;-82
2022/02/01 09:51:51;;;;;;;10.30;4.65;;;10.40;54.10;;;;;;4902705;29;20036;-81
2022/02/01 09:54:18;;;;;;;8.93;4.10;;;10.50;50.60;;;;;;4902077;29;20028;-82
2022/02/01 09:56:44;;;;;;;9.07;4.07;;;10.50;50.40;;;;;;4902246;29;20032;-81
2022/02/01 09:59:31;;;;;;;12.25;3.95;;;10.40;51.40;;;;;;4903665;29;20103;-82
2022/02/01 10:02:07;;;;;;;9.70;4.45;;;10.40;50.40;;;;;;4903554;29;20375;-81
2022/02/01 10:04:33;;;;;;;8.52;3.70;;;9.90;48.20;;;;;;4887926;29;20383;-81
2022/02/01 10:07:07;;;;;;;9.95;4.50;;;9.10;50.10;;;;;;4902225;29;20111;-81
2022/02/01 10:09:32;;;;;;;9.75;4.60;;;8.70;51.60;;;;;;4919332;29;20040;-82
2022/02/01 10:11:58;;;;;;;8.52;4.30;;;8.90;52.70;;;;;;4920529;29;20478;-81
2022/02/01 10:14:28;;;;;;;10.90;4.20;;;9.20;51.80;;;;;;4902297;29;20423;-81
2022/02/01 10:16:56;;;;;;;7.40;4.03;;;9.50;51.40;;;;;;4901984;29;20029;-82
2022/02/01 10:19:23;;;;;;;8.00;3.95;;;9.40;49.60;;;;;;4902226;29;20036;-80
2022/02/01 10:21:52;;;;;;;9.63;4.30;;;8.90;49.20;;;;;;4921545;29;20036;-84
2022/02/01 10:24:42;;;;;;;8.10;3.78;;;8.20;49.90;;;;;;4922510;29;20352;-83
2022/02/01 10:27:17;;;;;;;9.98;4.07;;;7.40;50.20;;;;;;4907513;29;20034;-84
2022/02/01 10:30:07;;;;;;;9.75;4.25;;;6.90;52.40;;;;;;4907178;29;20083;-84
2022/02/01 10:32:53;;;;;;;10.00;3.80;;;7.30;53.60;;;;;;4906839;29;20056;-83
2022/02/01 10:38:08;;;;;;;9.00;3.53;;;9.00;51.50;;;;;;4924257;29;20112;-83
2022/02/01 10:40:46;;;;;;;8.43;3.65;;;9.60;48.40;;;;;;4906172;29;20118;-84
2022/02/01 10:43:19;;;;;;;8.38;3.53;;;9.30;47.60;;;;;;4924072;29;20552;-83
2022/02/01 10:45:46;;;;;;;7.82;3.90;;;8.80;49.50;;;;;;4906522;29;20541;-84
2022/02/01 10:48:20;;;;;;;8.57;3.92;;;8.60;49.50;;;;;;4905610;29;20188;-84
2022/02/01 10:51:14;;;;;;;7.15;3.90;;;8.20;49.20;;;;;;4922315;29;20028;-84
2022/02/01 10:53:43;;;;;;;6.70;3.63;;;7.50;49.40;;;;;;4905643;29;20083;-84
2022/02/01 10:56:12;;;;;;;9.70;3.60;;;6.90;49.50;;;;;;4908315;29;20039;-84
2022/02/01 10:58:39;;;;;;;8.07;3.25;;;6.40;49.30;;;;;;4907249;29;20061;-85
2022/02/01 11:11:00;;;;;;;;;;;;;;;;;;;;;
2022/02/01 11:13:46;;;;;;;12.30;5.53;;;4.40;53.00;;;;;;4808346;29;20050;-84
2022/02/01 11:16:18;;;;;;;19.58;8.27;;;4.30;53.40;;;;;;4809412;29;20560;-84
2022/02/01 11:21:57;;;;;;;12.88;5.85;;;4.10;53.40;;;;;;4806624;29;19920;-84
2022/02/01 11:24:33;;;;;;;15.55;6.78;;;4.00;53.90;;;;;;4823013;29;20045;-84
2022/02/01 11:27:17;;;;;;;19.65;8.65;;;3.90;54.20;;;;;;4848077;29;20034;-84
2022/02/01 11:30:11;;;;;;;20.23;7.90;;;3.80;54.50;;;;;;4920574;29;20040;-85
2022/02/01 11:32:48;;;;;;;11.82;5.03;;;3.80;55.10;;;;;;4911291;29;20036;-85
2022/02/01 11:35:20;;;;;;;12.90;5.50;;;3.80;55.00;;;;;;4919464;29;20107;-83
2022/02/01 11:37:51;;;;;;;19.70;7.60;;;3.80;55.30;;;;;;4902160;29;20055;-83
2022/02/01 11:40:18;;;;;;;13.75;6.20;;;4.20;56.80;;;;;;4902766;29;20059;-83
2022/02/01 11:50:23;;;;;;;8.57;4.60;;;6.70;51.60;;;;;;4924747;29;20059;-84
2022/02/01 11:52:51;;;;;;;6.85;3.33;;;7.50;51.70;;;;;;4903707;29;20040;-84
2022/02/01 11:55:25;;;;;;;5.72;2.90;;;8.40;51.20;;;;;;4918766;29;20416;-84
2022/02/01 11:57:53;;;;;;;7.28;3.22;;;9.50;50.70;;;;;;4902373;29;20471;-83
2022/02/01 12:00:22;;;;;;;8.25;3.35;;;10.40;48.70;;;;;;4901583;29;20459;-83
2022/02/01 12:02:56;;;;;;;5.95;3.13;;;11.30;47.90;;;;;;4901825;29;20043;-84
2022/02/01 12:05:29;;;;;;;7.40;2.85;;;12.00;46.60;;;;;;4901460;29;20035;-82
2022/02/01 12:08:04;;;;;;;6.63;3.38;;;12.40;44.70;;;;;;4919058;29;20463;-83
2022/02/01 12:10:33;;;;;;;6.15;2.97;;;12.70;44.70;;;;;;4919699;29;20110;-83
2022/02/01 12:13:00;;;;;;;5.75;3.42;;;13.10;43.70;;;;;;4901171;29;20036;-83
2022/02/01 12:15:28;;;;;;;8.38;5.13;;;13.40;43.80;;;;;;4901638;29;20383;-82
2022/02/01 12:18:06;;;;;;;22.38;10.60;;;13.70;42.80;;;;;;4919141;29;20467;-83
2022/02/01 12:20:35;;;;;;;31.85;14.38;;;13.90;40.30;;;;;;4919618;29;20028;-82
2022/02/01 12:23:17;;;;;;;26.02;12.23;;;14.00;42.00;;;;;;4901672;29;20028;-82
2022/02/01 12:25:43;;;;;;;13.45;7.35;;;14.30;41.00;;;;;;4918484;29;20028;-81
2022/02/01 12:28:20;;;;;;;13.98;7.90;;;14.10;39.20;;;;;;4918450;29;20028;-83
2022/02/01 12:30:47;;;;;;;9.20;5.88;;;13.90;39.20;;;;;;4901076;29;20470;-82
2022/02/01 12:33:22;;;;;;;7.75;4.75;;;13.80;39.30;;;;;;4901165;29;20398;-81
2022/02/01 12:35:53;;;;;;;7.15;3.47;;;13.60;39.90;;;;;;4918727;29;20039;-81
2022/02/01 12:38:24;;;;;;;6.65;3.30;;;13.80;39.40;;;;;;4900863;29;20467;-82
2022/02/01 12:40:59;;;;;;;5.97;2.83;;;13.40;37.90;;;;;;4917767;29;20055;-83
2022/02/01 12:43:31;;;;;;;5.82;2.55;;;12.40;37.30;;;;;;4901017;29;20036;-83
2022/02/01 12:46:32;;;;;;;6.75;2.80;;;11.30;38.50;;;;;;4917544;29;20048;-83
2022/02/01 12:48:57;;;;;;;5.90;2.70;;;10.20;39.50;;;;;;4918275;29;20084;-83
2022/02/01 12:51:26;;;;;;;7.68;3.03;;;9.00;40.40;;;;;;4917980;29;20494;-83
2022/02/01 12:53:53;;;;;;;8.57;3.70;;;8.30;41.30;;;;;;4900833;29;20079;-83
2022/02/01 12:56:21;;;;;;;10.02;4.05;;;8.10;42.50;;;;;;4900701;29;20039;-85
2022/02/01 12:59:01;;;;;;;10.73;3.72;;;8.10;43.50;;;;;;4901038;29;20028;-81
2022/02/01 13:01:34;;;;;;;10.55;4.35;;;8.80;42.00;;;;;;4917645;29;20083;-83
2022/02/01 13:04:02;;;;;;;9.10;4.32;;;9.20;41.80;;;;;;4917636;29;20091;-83
2022/02/01 13:06:29;;;;;;;12.20;5.78;;;9.40;41.30;;;;;;4917619;29;20051;-83
2022/02/01 13:15:14;;;;;;;6.55;3.15;;;9.80;41.40;;;;;;4860485;29;20082;-84
2022/02/01 13:17:45;;;;;;;11.93;4.95;;;10.20;40.80;;;;;;4905174;29;20088;-82
2022/02/01 13:20:19;;;;;;;6.50;3.45;;;10.30;40.20;;;;;;4902343;29;20055;-82
2022/02/01 13:23:04;;;;;;;6.05;3.10;;;10.70;40.70;;;;;;4900937;29;20039;-83
2022/02/01 13:25:43;;;;;;;5.20;2.50;;;11.10;38.60;;;;;;4901389;29;20032;-82
2022/02/01 13:28:14;;;;;;;5.53;2.60;;;11.10;38.20;;;;;;4900474;29;20087;-83
2022/02/01 13:30:43;;;;;;;4.82;2.35;;;11.00;38.80;;;;;;4917735;29;20367;-83
2022/02/01 13:33:10;;;;;;;6.90;2.70;;;11.00;38.70;;;;;;4917292;29;20040;-82
2022/02/01 13:35:54;;;;;;;5.97;2.60;;;11.00;38.60;;;;;;4900210;29;20038;-83
2022/02/01 13:38:22;;;;;;;6.00;2.65;;;10.90;38.20;;;;;;4917331;29;20024;-83
2022/02/01 13:40:49;;;;;;;6.03;2.50;;;10.80;39.10;;;;;;4917145;29;20031;-83
2022/02/01 13:43:27;;;;;;;5.38;2.92;;;10.80;38.80;;;;;;4917039;29;20039;-82
2022/02/01 13:45:54;;;;;;;7.78;2.92;;;10.60;38.90;;;;;;4916934;29;20087;-82
2022/02/01 13:48:27;;;;;;;7.88;2.70;;;10.40;38.70;;;;;;4900301;29;20032;-82
2022/02/01 13:51:04;;;;;;;5.45;2.92;;;10.00;38.70;;;;;;4900665;29;20099;-83
2022/02/01 13:53:29;;;;;;;5.35;2.90;;;9.30;39.20;;;;;;4900436;29;20063;-83
2022/02/01 13:56:05;;;;;;;5.18;2.90;;;8.70;40.30;;;;;;4917969;29;20451;-82
2022/02/01 13:58:33;;;;;;;6.07;3.10;;;7.90;40.90;;;;;;4918175;29;20443;-83
2022/02/01 14:01:00;;;;;;;7.65;3.40;;;7.20;41.70;;;;;;4921225;29;20035;-81
2022/02/01 14:03:41;;;;;;;7.18;3.30;;;6.40;42.70;;;;;;4903990;29;20032;-83
2022/02/01 14:06:28;;;;;;;7.15;3.75;;;5.70;43.80;;;;;;4904956;29;20039;-84
2022/02/01 14:11:45;;;;;;;14.65;6.95;;;4.60;45.70;;;;;;4928698;29;20036;-83
2022/02/01 14:23:29;;;;;;;9.00;3.90;;;3.80;47.90;;;;;;4921021;29;20167;-84
2022/02/01 14:34:19;;;;;;;8.35;3.85;;;3.20;49.70;;;;;;4920372;29;20141;-84
2022/02/01 14:36:28;;;;;;;6.80;3.15;;;3.00;50.30;;;;;;4912281;29;20408;-83
2022/02/01 14:46:46;;;;;;;7.63;3.72;;;2.00;52.80;;;;;;4920245;29;20463;-84
2022/02/01 14:49:11;;;;;;;8.35;3.50;;;1.90;53.10;;;;;;4919953;29;20071;-83
2022/02/01 14:51:37;;;;;;;10.33;3.67;;;1.70;53.40;;;;;;4902899;29;20032;-84
2022/02/01 14:54:06;;;;;;;7.35;3.50;;;1.60;53.70;;;;;;4902880;29;20028;-84
2022/02/01 14:56:36;;;;;;;8.25;3.40;;;1.50;54.10;;;;;;4902877;29;20135;-84
2022/02/01 15:07:18;;;;;;;9.13;3.85;;;1.10;55.30;;;;;;4925042;29;20036;-85
2022/02/01 15:16:50;;;;;;;8.77;3.40;;;0.90;56.30;;;;;;4911388;29;20044;-86
2022/02/01 15:19:16;;;;;;;7.75;3.08;;;0.80;56.40;;;;;;4922768;29;20035;-85
2022/02/01 15:22:00;;;;;;;8.27;3.88;;;0.70;56.30;;;;;;4904021;29;20032;-86
2022/02/01 15:24:32;;;;;;;10.68;4.45;;;0.60;56.40;;;;;;4921518;29;20036;-85
2022/02/01 15:26:58;;;;;;;13.18;4.65;;;0.50;56.60;;;;;;4904767;29;20115;-85
2022/02/01 15:29:24;;;;;;;10.20;5.30;;;0.50;57.20;;;;;;4902199;29;20151;-84
2022/02/01 15:31:49;;;;;;;15.93;7.45;;;0.40;57.30;;;;;;4919133;29;20071;-84
2022/02/01 15:57:31;;;;;;;12.25;4.47;;;0.50;58.00;;;;;;4918979;29;20036;-84